Date,TemperatureHighF,TemperatureAvgF,TemperatureLowF,DewpointHighF,DewpointAvgF,DewpointLowF,HumidityHigh,HumidityAvg,HumidityLow,PressureMaxIn,PressureMinIn,WindSpeedMaxMPH,WindSpeedAvgMPH,GustSpeedMaxMPH,PrecipitationSumIn
2013-1-1,45.0,41.3,38.0,44.0,40.2,31.0,97,95,76,30.05,29.93,2,1,0,0.00
2013-1-2,43.0,38.3,36.0,42.0,34.9,32.0,97,87,73,30.10,29.96,2,1,0,0.00
2013-1-3,44.0,36.7,29.0,34.0,28.4,22.0,95,74,40,30.27,30.09,2,1,0,0.00
2013-1-4,43.0,31.9,23.0,27.0,22.7,18.0,96,72,36,30.35,30.26,3,1,0,0.00
2013-1-5,45.0,35.1,24.0,38.0,25.7,20.0,97,73,38,30.30,30.16,2,1,0,0.00
2013-1-6,47.0,40.8,37.0,39.0,35.3,28.0,97,82,57,30.20,30.06,3,2,0,0.00
2013-1-7,49.0,37.0,28.0,31.0,27.3,24.0,94,70,38,30.31,30.20,4,1,0,0.00
2013-1-8,54.0,37.9,26.0,37.0,30.9,26.0,97,79,41,30.30,30.20,2,0,0,0.00
2013-1-9,49.0,44.9,37.0,48.0,43.1,36.0,97,93,84,30.36,30.22,2,0,0,0.00
2013-1-10,61.0,53.3,49.0,53.0,50.3,48.0,97,89,69,30.36,30.08,3,1,0,0.00
2013-1-11,67.0,62.2,52.0,64.0,59.3,51.0,97,90,78,30.10,30.00,4,2,0,0.00
2013-1-12,70.0,66.0,63.0,65.0,62.9,59.0,98,90,77,30.06,29.95,3,1,0,0.00
2013-1-13,68.0,63.7,56.0,64.0,59.6,52.0,98,87,73,30.00,29.90,4,1,0,0.01
2013-1-14,56.0,42.4,36.0,55.0,41.7,35.0,98,97,97,30.21,30.00,4,1,0,0.00
2013-1-15,42.0,39.8,37.0,42.0,39.1,37.0,97,97,97,30.12,29.94,3,1,0,0.00
2013-1-16,44.0,41.6,40.0,43.0,41.1,39.0,97,97,97,30.01,29.87,3,1,0,0.00
2013-1-17,42.0,37.2,31.0,41.0,35.0,27.0,97,91,57,30.24,29.84,3,1,0,0.00
2013-1-18,46.0,33.6,24.0,34.0,28.0,22.0,97,83,38,30.42,30.23,3,0,0,0.00
2013-1-19,52.0,36.6,25.0,34.0,28.3,25.0,97,76,34,30.34,30.11,4,1,0,0.00
2013-1-20,56.0,41.0,29.0,33.0,29.4,25.0,97,68,33,30.14,30.05,3,1,0,0.00
2013-1-21,45.0,34.9,27.0,30.0,17.3,8.0,92,55,23,30.15,30.03,4,2,0,0.00
2013-1-22,33.0,27.1,21.0,9.0,-0.6,-9.0,47,30,16,30.27,30.14,4,2,0,0.00
2013-1-23,45.0,32.6,22.0,24.0,11.2,0.0,71,41,28,30.27,30.06,4,1,0,0.00
2013-1-24,43.0,34.1,28.0,32.0,13.2,2.0,70,43,25,30.32,30.06,4,2,0,0.00
2013-1-25,33.0,30.2,27.0,32.0,23.4,4.0,97,79,35,30.26,30.03,3,1,0,0.00
2013-1-26,44.0,35.8,31.0,37.0,32.2,28.0,97,88,53,30.27,30.10,2,1,0,0.00
2013-1-27,47.0,37.5,29.0,41.0,30.7,26.0,97,78,51,30.34,30.23,2,1,0,0.00
2013-1-28,54.0,47.5,41.0,49.0,41.3,35.0,97,79,66,30.26,30.15,2,1,0,0.00
2013-1-29,59.0,52.1,46.0,55.0,49.7,45.0,97,91,72,0.00,40.00,2,1,0,0.00
2013-1-30,69.0,56.9,42.0,65.0,54.5,36.0,98,92,72,0.00,40.00,6,2,0,0.01
2013-1-31,43.0,38.7,34.0,38.0,22.7,18.0,86,53,37,0.00,40.00,5,3,0,0.00